Time;durP1;ratioP1;P1;durP2;ratioP2;P2;SDS_P1;SDS_P2;PMS_P1;PMS_P2;Temp;Humidity;BMP_temperature;BMP_pressure;BME280_temperature;BME280_humidity;BME280_pressure;Samples;Min_cycle;Max_cycle;Signal;HPM_P1;HPM_P2
2023/11/21 00:00:20;;;;;;;9.13;7.07;;;;;;;-145.63;47.32;39016.44;4948115;29;20316;-65
2023/11/21 00:02:46;;;;;;;9.30;6.88;;;;;;;-145.63;47.70;39024.25;4947758;29;20028;-65
2023/11/21 00:05:16;;;;;;;9.18;7.00;;;;;;;-145.63;47.32;39026.19;4948506;29;20280;-64
2023/11/21 00:07:43;;;;;;;8.43;6.60;;;;;;;-145.63;46.82;39034.03;4948151;29;20020;-65
2023/11/21 00:10:10;;;;;;;8.73;6.97;;;;;;;-145.63;47.35;39039.88;4948251;29;20024;-65
2023/11/21 00:12:37;;;;;;;8.60;6.70;;;;;;;-145.63;47.44;39004.69;4947965;29;20028;-65
2023/11/21 00:15:13;;;;;;;8.18;6.57;;;;;;;-145.63;48.32;39047.72;4948007;29;20034;-65
2023/11/21 00:17:39;;;;;;;7.65;6.57;;;;;;;-145.63;47.81;39006.66;4947357;29;20343;-65
2023/11/21 00:20:08;;;;;;;8.82;7.45;;;;;;;-145.63;47.75;39022.28;4947838;29;20042;-65
2023/11/21 00:22:35;;;;;;;7.85;6.25;;;;;;;-145.63;47.01;39028.16;4938953;29;20135;-65
2023/11/21 00:25:03;;;;;;;8.80;6.80;;;;;;;-145.63;47.66;39008.59;4946234;29;20185;-66
2023/11/21 00:27:31;;;;;;;9.55;6.28;;;;;;;-145.63;48.08;39034.03;4948003;29;20031;-65
2023/11/21 00:29:57;;;;;;;7.72;6.45;;;;;;;-145.63;47.75;38981.22;4947923;29;20067;-67
2023/11/21 00:32:22;;;;;;;9.68;6.72;;;;;;;-145.63;47.22;39006.66;4947901;29;20030;-66
2023/11/21 00:34:48;;;;;;;10.40;6.95;;;;;;;-145.63;48.01;38994.91;4947704;29;20231;-64
2023/11/21 00:37:14;;;;;;;7.18;6.47;;;;;;;-145.63;47.20;39018.38;4948273;29;20027;-64
2023/11/21 00:39:40;;;;;;;9.68;6.57;;;;;;;-145.63;47.73;39034.03;4947467;29;20050;-65
2023/11/21 00:42:06;;;;;;;9.15;7.03;;;;;;;-145.63;47.62;39014.47;4933324;29;20024;-65
2023/11/21 00:44:34;;;;;;;8.02;6.50;;;;;;;-145.63;47.66;39008.59;4944694;29;20069;-65
2023/11/21 00:47:00;;;;;;;8.00;6.38;;;;;;;-145.63;47.47;39022.28;4947626;29;20032;-65
2023/11/21 00:49:25;;;;;;;8.65;5.93;;;;;;;-145.63;46.49;39043.81;4949907;28;20315;-65
2023/11/21 00:51:51;;;;;;;6.60;5.90;;;;;;;-145.63;46.91;39055.53;4947536;29;20031;-65
2023/11/21 00:54:17;;;;;;;6.40;5.75;;;;;;;-145.63;46.79;39018.38;4947520;29;20047;-65
2023/11/21 00:56:43;;;;;;;7.47;6.00;;;;;;;-145.63;47.01;39030.13;4947232;29;20107;-65
2023/11/21 00:59:09;;;;;;;7.60;6.00;;;;;;;-145.63;47.69;39022.28;4947123;29;20031;-65
2023/11/21 01:01:34;;;;;;;8.35;6.47;;;;;;;-145.63;46.95;39034.03;4946125;29;20165;-63
2023/11/21 01:04:00;;;;;;;8.50;6.30;;;;;;;-145.63;46.83;39039.88;4947069;29;20046;-65
2023/11/21 01:06:26;;;;;;;8.35;5.88;;;;;;;-145.63;47.19;39020.34;4947230;29;20019;-64
2023/11/21 01:08:52;;;;;;;13.60;8.45;;;;;;;-145.63;46.94;39022.28;4947131;29;20055;-66
2023/11/21 01:11:18;;;;;;;9.38;6.45;;;;;;;-145.63;47.99;39024.25;4946987;29;20031;-64
2023/11/21 01:13:44;;;;;;;6.85;6.15;;;;;;;-145.63;47.53;39032.06;4946799;29;20078;-65
2023/11/21 01:16:11;;;;;;;6.90;5.70;;;;;;;-145.63;46.99;39020.34;4946985;29;20024;-64
2023/11/21 01:18:37;;;;;;;8.30;6.57;;;;;;;-145.63;48.19;39041.84;4946814;29;20055;-66
2023/11/21 01:21:03;;;;;;;6.95;5.90;;;;;;;-145.63;47.88;39024.25;4946941;29;20035;-66
2023/11/21 01:23:30;;;;;;;8.63;6.03;;;;;;;-145.63;47.08;39037.94;4946991;29;20030;-66
2023/11/21 01:25:56;;;;;;;8.07;5.68;;;;;;;-145.63;47.17;39012.50;4946325;29;20027;-65
2023/11/21 01:28:22;;;;;;;6.43;5.45;;;;;;;-145.63;47.99;39000.78;4938476;29;20036;-64
2023/11/21 01:30:49;;;;;;;7.30;5.57;;;;;;;-145.63;47.19;39092.69;4946522;29;20090;-64
2023/11/21 01:33:15;;;;;;;7.45;5.90;;;;;;;-145.63;47.59;39037.94;4946824;29;20323;-65
2023/11/21 01:35:42;;;;;;;8.00;5.60;;;;;;;-145.63;46.72;39035.97;4946857;29;20035;-66
2023/11/21 01:38:08;;;;;;;7.72;5.75;;;;;;;-145.63;47.31;39077.06;4946599;29;20023;-65
2023/11/21 01:40:35;;;;;;;10.20;5.90;;;;;;;-145.63;48.50;39000.78;4952800;29;20019;-65
2023/11/21 01:43:03;;;;;;;7.20;5.90;;;;;;;-145.63;48.23;39037.94;4946486;29;20086;-66
2023/11/21 01:45:30;;;;;;;6.10;5.40;;;;;;;-145.63;48.11;38912.78;4946245;29;20101;-65
2023/11/21 01:47:57;;;;;;;6.30;5.65;;;;;;;-145.63;48.34;39000.78;4927683;29;20021;-64
2023/11/21 01:50:24;;;;;;;6.18;5.55;;;;;;;-145.63;47.90;39037.94;4947967;29;20059;-66
2023/11/21 01:52:51;;;;;;;7.03;5.53;;;;;;;-145.63;47.53;39030.13;4946233;29;20273;-65
2023/11/21 01:55:18;;;;;;;6.50;5.40;;;;;;;-145.63;47.96;39065.31;4946319;29;20051;-64
2023/11/21 01:57:46;;;;;;;6.28;5.65;;;;;;;-145.63;46.96;39024.25;4945917;29;20235;-65
2023/11/21 02:00:15;;;;;;;8.05;5.53;;;;;;;-145.63;46.99;39047.72;4946207;29;20051;-63
2023/11/21 02:02:43;;;;;;;7.68;5.70;;;;;;;-145.63;46.72;39024.25;4943754;29;20043;-64
2023/11/21 02:05:12;;;;;;;6.72;5.55;;;;;;;-145.63;47.36;39026.19;4946025;29;20099;-63
2023/11/21 02:07:39;;;;;;;7.90;5.43;;;;;;;-145.63;46.98;38992.97;4944697;29;20027;-63
2023/11/21 02:10:07;;;;;;;7.18;5.95;;;;;;;-145.63;47.13;39020.34;4945783;29;20032;-63
2023/11/21 02:12:38;;;;;;;6.75;4.82;;;;;;;-145.63;46.66;39026.19;4945763;29;20028;-63
2023/11/21 02:15:09;;;;;;;5.90;4.82;;;;;;;-145.63;46.88;39012.50;4945172;29;20211;-63
2023/11/21 02:17:36;;;;;;;5.57;5.07;;;;;;;-145.63;47.20;39010.56;4945834;29;20028;-65
2023/11/21 02:20:03;;;;;;;7.18;5.40;;;;;;;-145.63;46.53;38897.13;4945696;29;20031;-64
2023/11/21 02:22:33;;;;;;;7.50;5.22;;;;;;;-145.63;46.34;39020.34;4945951;29;20310;-65
2023/11/21 02:24:58;;;;;;;6.85;5.55;;;;;;;-145.63;47.23;39030.13;4945274;29;20039;-64
2023/11/21 02:27:24;;;;;;;6.22;5.38;;;;;;;-145.63;46.27;39022.28;4945659;29;20227;-64
2023/11/21 02:29:50;;;;;;;9.13;5.07;;;;;;;-145.63;46.38;39008.59;4945579;29;20028;-64
2023/11/21 02:32:22;;;;;;;6.85;4.85;;;;;;;-145.63;46.67;39018.38;4945630;29;20035;-64
2023/11/21 02:34:49;;;;;;;6.97;4.97;;;;;;;-145.63;46.08;39026.19;4945445;29;20054;-65
2023/11/21 02:37:15;;;;;;;8.10;5.00;;;;;;;-145.63;45.76;38998.81;4945333;29;20024;-65
2023/11/21 02:39:41;;;;;;;6.68;4.90;;;;;;;-145.63;46.65;39026.19;4945440;29;20039;-64
2023/11/21 02:42:07;;;;;;;6.65;4.88;;;;;;;-145.63;46.05;39008.59;4931489;29;20028;-65
2023/11/21 02:44:33;;;;;;;5.05;4.57;;;;;;;-145.63;46.92;38963.63;4941937;29;20031;-65
2023/11/21 02:47:00;;;;;;;6.53;4.80;;;;;;;-145.63;47.45;38994.91;4945389;29;20059;-65
2023/11/21 02:49:28;;;;;;;5.57;4.40;;;;;;;-145.63;47.30;38987.09;4948898;29;20036;-65
2023/11/21 02:51:57;;;;;;;7.90;5.68;;;;;;;-145.63;47.06;39090.75;4945501;29;20020;-65
2023/11/21 02:54:23;;;;;;;6.38;5.00;;;;;;;-145.63;46.86;39016.44;4945757;29;20046;-63
2023/11/21 02:56:49;;;;;;;6.68;5.45;;;;;;;-145.63;46.29;39006.66;4945175;29;20032;-63
2023/11/21 02:59:15;;;;;;;6.38;4.68;;;;;;;-145.63;47.00;38957.75;4945363;29;20037;-65
2023/11/21 03:01:41;;;;;;;6.18;4.60;;;;;;;-145.63;46.77;39012.50;4942741;29;20027;-64
2023/11/21 03:04:07;;;;;;;5.68;4.82;;;;;;;-145.63;46.52;39006.66;4945263;29;20028;-63
2023/11/21 03:06:33;;;;;;;5.93;5.07;;;;;;;-145.63;46.92;39004.69;4945135;29;20039;-65
2023/11/21 03:08:59;;;;;;;6.05;4.55;;;;;;;-145.63;46.35;39022.28;4945165;29;20269;-65
2023/11/21 03:11:26;;;;;;;6.70;4.95;;;;;;;-145.63;46.40;39035.97;4945106;29;20074;-65
2023/11/21 03:13:51;;;;;;;6.43;4.82;;;;;;;-145.63;45.92;39010.56;4945505;29;20035;-62
2023/11/21 03:16:19;;;;;;;7.43;4.57;;;;;;;-145.63;46.88;39034.03;4944580;29;20031;-63
2023/11/21 03:18:44;;;;;;;5.35;4.30;;;;;;;-145.63;46.63;39018.38;4945053;29;20043;-62
2023/11/21 03:21:10;;;;;;;5.50;4.35;;;;;;;-145.63;45.83;38963.63;4944979;29;20050;-65
2023/11/21 03:23:36;;;;;;;5.43;4.47;;;;;;;-145.63;45.81;39028.16;4944882;29;20054;-63
2023/11/21 03:26:03;;;;;;;5.47;4.32;;;;;;;-145.63;46.81;38996.88;4946839;29;20036;-62
2023/11/21 03:28:30;;;;;;;5.75;4.63;;;;;;;-145.63;46.90;38998.81;4948995;29;20035;-63
2023/11/21 03:30:56;;;;;;;6.15;4.72;;;;;;;-145.63;46.98;38840.44;4948531;29;20048;-63
2023/11/21 03:33:22;;;;;;;5.88;4.60;;;;;;;-145.63;46.83;39008.59;4948979;29;20074;-64
2023/11/21 03:35:49;;;;;;;5.93;4.03;;;;;;;-145.63;47.09;38991.00;4948733;29;20323;-62
2023/11/21 03:38:15;;;;;;;5.30;4.30;;;;;;;-145.63;47.26;38996.88;4961464;29;20023;-63
2023/11/21 03:40:41;;;;;;;4.40;3.85;;;;;;;-145.63;46.39;38996.88;4956710;28;20028;-64
2023/11/21 03:43:07;;;;;;;5.53;4.68;;;;;;;-145.63;46.75;38998.81;4933420;29;20196;-63
2023/11/21 03:45:33;;;;;;;7.05;4.30;;;;;;;-145.63;47.01;38967.53;4948628;29;20038;-62
2023/11/21 03:48:01;;;;;;;6.70;4.40;;;;;;;-145.63;46.71;39020.34;4947814;29;20027;-62
2023/11/21 03:50:31;;;;;;;5.65;3.80;;;;;;;-145.63;47.50;39000.78;4952428;28;20035;-62
2023/11/21 03:52:57;;;;;;;4.28;3.88;;;;;;;-145.63;46.54;39018.38;4948750;29;20023;-63
2023/11/21 03:55:26;;;;;;;5.55;4.20;;;;;;;-145.63;47.03;39020.34;4947505;29;20354;-64
2023/11/21 03:57:52;;;;;;;5.07;4.28;;;;;;;-145.63;47.09;39020.34;4948317;29;20091;-63
2023/11/21 04:00:19;;;;;;;4.03;3.63;;;;;;;-145.63;46.58;39006.66;4948017;29;20031;-64
2023/11/21 04:02:46;;;;;;;5.50;4.72;;;;;;;-145.63;47.36;39000.78;4945506;29;20032;-62
2023/11/21 04:05:12;;;;;;;6.10;4.60;;;;;;;-145.63;46.60;39014.47;4947339;29;20219;-63
2023/11/21 04:07:38;;;;;;;6.78;4.85;;;;;;;-145.63;46.86;39002.72;4979439;28;20086;-63
2023/11/21 04:10:08;;;;;;;6.78;4.65;;;;;;;-145.63;46.30;39010.56;4948319;29;20023;-63
2023/11/21 04:12:35;;;;;;;8.75;5.53;;;;;;;-145.63;46.42;39020.34;4966469;29;20299;-64
2023/11/21 04:15:01;;;;;;;5.20;4.70;;;;;;;-145.63;47.02;39037.94;4948699;29;20039;-63
2023/11/21 04:17:26;;;;;;;7.60;5.30;;;;;;;-145.63;46.48;39035.97;4967320;29;20202;-63
2023/11/21 04:19:52;;;;;;;5.93;5.20;;;;;;;-145.63;47.17;39039.88;4957957;28;20278;-64
2023/11/21 04:22:18;;;;;;;5.80;5.20;;;;;;;-145.63;46.35;38873.66;4957814;29;20036;-64
2023/11/21 04:24:43;;;;;;;8.68;5.20;;;;;;;-145.63;46.25;39034.03;4947584;29;20079;-64
2023/11/21 04:27:09;;;;;;;7.47;5.40;;;;;;;-145.63;46.90;38959.72;4948009;29;20031;-64
2023/11/21 04:29:35;;;;;;;6.60;4.97;;;;;;;-145.63;47.22;39024.25;4947723;29;20316;-64
2023/11/21 04:32:02;;;;;;;5.90;5.13;;;;;;;-145.63;46.63;39063.34;4947865;29;20047;-64
2023/11/21 04:34:30;;;;;;;9.07;4.90;;;;;;;-145.63;46.28;39147.44;4946875;29;20382;-63
2023/11/21 04:36:57;;;;;;;8.70;4.97;;;;;;;-145.63;46.38;39026.19;4946074;29;20035;-64
2023/11/21 04:39:23;;;;;;;7.43;5.78;;;;;;;-145.63;46.97;39055.53;4946503;29;20046;-63
2023/11/21 04:41:49;;;;;;;5.50;4.70;;;;;;;-145.63;46.71;38998.81;4947344;29;20142;-64
2023/11/21 04:44:16;;;;;;;5.82;4.90;;;;;;;-145.63;46.00;39008.59;4947403;29;20118;-63
2023/11/21 04:46:41;;;;;;;6.07;4.70;;;;;;;-145.63;46.94;39030.13;4947417;29;20233;-65
2023/11/21 04:49:07;;;;;;;6.38;4.85;;;;;;;-145.63;46.46;39024.25;4951932;29;20063;-64
2023/11/21 04:51:33;;;;;;;5.65;4.20;;;;;;;-145.63;46.75;39022.28;4947372;29;20050;-63
2023/11/21 04:53:59;;;;;;;6.00;4.72;;;;;;;-145.63;47.29;39000.78;4947623;29;20505;-62
2023/11/21 04:56:25;;;;;;;5.90;5.13;;;;;;;-145.63;47.41;39065.31;4947353;29;20028;-65
2023/11/21 04:58:51;;;;;;;6.55;5.20;;;;;;;-145.63;47.47;39008.59;4929904;29;20039;-63
2023/11/21 05:01:16;;;;;;;8.45;5.15;;;;;;;-145.63;46.82;39063.34;4943619;29;20043;-64
2023/11/21 05:03:43;;;;;;;11.93;5.65;;;;;;;-145.63;47.50;39030.13;4945879;29;20027;-64
2023/11/21 05:06:11;;;;;;;9.80;5.45;;;;;;;-145.63;47.47;38989.03;4946719;29;20043;-63
2023/11/21 05:08:37;;;;;;;6.65;5.63;;;;;;;-145.63;46.95;39063.34;4946640;29;20023;-63
2023/11/21 05:11:03;;;;;;;8.65;6.32;;;;;;;-145.63;47.23;39030.13;4945828;29;20312;-63
2023/11/21 05:13:29;;;;;;;8.98;6.00;;;;;;;-145.63;46.96;39012.50;4947095;29;20028;-63
2023/11/21 05:15:58;;;;;;;6.45;5.22;;;;;;;-145.63;47.92;39043.81;4946398;29;20020;-63
2023/11/21 05:18:26;;;;;;;9.18;6.15;;;;;;;-145.63;47.55;39020.34;4947008;29;20042;-64
2023/11/21 05:20:53;;;;;;;9.50;5.72;;;;;;;-145.63;47.48;39016.44;4946642;29;20197;-64
2023/11/21 05:23:19;;;;;;;7.45;6.32;;;;;;;-145.63;47.19;38994.91;4959165;29;20086;-65
2023/11/21 05:25:46;;;;;;;8.23;5.30;;;;;;;-145.63;48.29;39055.53;4956469;28;20034;-65
2023/11/21 05:28:12;;;;;;;6.95;5.40;;;;;;;-145.63;47.86;39030.13;4946601;29;20062;-64
2023/11/21 05:30:40;;;;;;;7.72;6.28;;;;;;;-145.63;48.01;39057.50;4946690;29;20082;-65
2023/11/21 05:33:06;;;;;;;5.68;5.07;;;;;;;-145.63;47.63;39028.16;4946752;29;20047;-64
2023/11/21 05:35:32;;;;;;;6.90;4.95;;;;;;;-145.63;48.10;38996.88;4946689;29;20181;-65
2023/11/21 05:37:57;;;;;;;9.38;5.72;;;;;;;-145.63;47.93;39022.28;4946573;29;20096;-66
2023/11/21 05:40:23;;;;;;;7.60;5.35;;;;;;;-145.63;48.48;39035.97;4946518;29;20028;-64
2023/11/21 05:42:51;;;;;;;8.05;5.70;;;;;;;-145.63;48.73;39016.44;4946313;29;20034;-64
2023/11/21 05:45:18;;;;;;;7.55;5.93;;;;;;;-145.63;48.19;39016.44;4946446;29;20019;-64
2023/11/21 05:47:48;;;;;;;7.97;5.53;;;;;;;-145.63;48.14;39012.50;4945756;29;20095;-65
2023/11/21 05:50:15;;;;;;;7.45;5.65;;;;;;;-145.63;48.75;39077.06;4962878;28;20023;-64
2023/11/21 05:52:42;;;;;;;7.70;5.90;;;;;;;-145.63;48.83;39034.03;4958387;28;20042;-64
2023/11/21 05:55:09;;;;;;;9.48;6.38;;;;;;;-145.63;48.56;39037.94;4945944;29;20151;-63
2023/11/21 05:57:36;;;;;;;6.80;6.10;;;;;;;-145.63;49.23;39024.25;4946136;29;20232;-63
2023/11/21 06:00:11;;;;;;;10.18;5.78;;;;;;;-145.63;48.35;39012.50;4946025;29;20169;-64
2023/11/21 06:02:38;;;;;;;9.30;6.00;;;;;;;-145.63;48.43;39034.03;4941154;29;20184;-65
2023/11/21 06:05:05;;;;;;;6.70;6.00;;;;;;;-145.63;48.48;39055.53;4945995;29;20232;-65
2023/11/21 06:07:31;;;;;;;6.70;5.90;;;;;;;-145.63;49.06;39010.56;4946011;29;20055;-63
2023/11/21 06:09:56;;;;;;;7.60;5.55;;;;;;;-145.63;49.15;39016.44;4945695;29;20026;-64
2023/11/21 06:12:22;;;;;;;10.00;6.15;;;;;;;-145.63;48.64;38799.34;4945665;29;20040;-64
2023/11/21 06:14:48;;;;;;;10.77;6.00;;;;;;;-145.63;49.62;38998.81;4944650;29;20023;-64
2023/11/21 06:17:14;;;;;;;9.63;6.25;;;;;;;-145.63;49.33;39016.44;4946044;29;20099;-63
2023/11/21 06:19:40;;;;;;;10.25;6.60;;;;;;;-145.63;50.08;38959.72;4952335;29;20275;-64
2023/11/21 06:22:06;;;;;;;7.70;5.93;;;;;;;-145.63;49.71;38971.44;4949974;28;20039;-63
2023/11/21 06:24:31;;;;;;;9.30;6.10;;;;;;;-145.63;49.78;38987.09;4945598;29;20035;-61
2023/11/21 06:26:58;;;;;;;8.07;5.75;;;;;;;-145.63;50.03;38985.13;4945368;29;20189;-63
2023/11/21 06:29:24;;;;;;;11.30;6.20;;;;;;;-145.63;49.31;38963.63;4944366;29;20046;-63
2023/11/21 06:31:50;;;;;;;8.35;6.75;;;;;;;-145.63;50.43;38981.22;4944949;29;20047;-63
2023/11/21 06:34:15;;;;;;;9.40;6.75;;;;;;;-145.63;48.67;38994.91;4945669;29;20328;-64
2023/11/21 06:36:41;;;;;;;6.95;6.20;;;;;;;-145.63;48.68;38953.84;4945725;29;20320;-63
2023/11/21 06:39:07;;;;;;;8.30;5.57;;;;;;;-145.63;49.56;38979.28;4945331;29;20074;-63
2023/11/21 06:41:34;;;;;;;8.52;6.35;;;;;;;-145.63;49.47;38969.50;4944080;29;20066;-65
2023/11/21 06:44:00;;;;;;;8.80;5.85;;;;;;;-145.63;49.57;38969.50;4947793;29;20210;-64
2023/11/21 06:46:25;;;;;;;7.95;5.95;;;;;;;-145.63;49.69;38955.81;4944276;29;20331;-64
2023/11/21 06:48:52;;;;;;;6.82;6.03;;;;;;;-145.63;49.02;38951.88;4951014;29;20019;-64
2023/11/21 06:51:17;;;;;;;6.63;5.60;;;;;;;-145.63;49.25;38992.97;4926727;29;20079;-64
2023/11/21 06:53:43;;;;;;;6.95;6.10;;;;;;;-145.63;50.09;38985.13;4940916;29;20023;-65
2023/11/21 06:56:18;;;;;;;9.75;6.10;;;;;;;-145.63;49.34;38985.13;4945247;29;20240;-64
2023/11/21 06:58:45;;;;;;;7.68;6.15;;;;;;;-145.63;49.76;38967.53;4944905;29;20032;-62
2023/11/21 07:01:15;;;;;;;12.02;6.57;;;;;;;-145.63;49.46;38959.72;4945167;29;20299;-63
2023/11/21 07:03:41;;;;;;;9.05;6.47;;;;;;;-145.63;49.23;38965.56;4945375;29;20035;-63
2023/11/21 07:06:07;;;;;;;8.90;6.25;;;;;;;-145.63;49.47;38963.63;4945132;29;20095;-64
2023/11/21 07:08:33;;;;;;;7.88;5.43;;;;;;;-145.63;48.80;38965.56;4945013;29;20027;-63
2023/11/21 07:10:59;;;;;;;7.65;5.72;;;;;;;-145.63;48.62;38992.97;4945080;29;20035;-64
2023/11/21 07:13:25;;;;;;;9.38;6.43;;;;;;;-145.63;49.44;38975.34;4945071;29;20347;-64
2023/11/21 07:15:52;;;;;;;7.63;6.15;;;;;;;-145.63;48.60;39008.59;4944369;29;20083;-65
2023/11/21 07:18:18;;;;;;;7.38;6.07;;;;;;;-145.63;49.08;38973.41;4945119;29;20265;-63
2023/11/21 07:20:43;;;;;;;8.77;6.45;;;;;;;-145.63;49.23;38942.13;4941095;29;20027;-64
2023/11/21 07:23:10;;;;;;;8.60;6.38;;;;;;;-145.63;49.51;39002.72;4935738;29;20248;-63
2023/11/21 07:25:36;;;;;;;6.65;5.95;;;;;;;-145.63;47.93;39000.78;4944355;29;20055;-65
2023/11/21 07:28:01;;;;;;;7.07;5.80;;;;;;;-145.63;49.21;38965.56;4952244;29;20035;-64
2023/11/21 07:30:28;;;;;;;8.40;6.82;;;;;;;-145.63;48.76;38989.03;4954442;29;20058;-63
2023/11/21 07:32:54;;;;;;;7.28;6.22;;;;;;;-145.63;48.74;38981.22;4954961;29;20031;-63
2023/11/21 07:35:19;;;;;;;8.60;6.35;;;;;;;-145.63;48.81;39002.72;4953437;29;20025;-64
2023/11/21 07:37:47;;;;;;;7.13;6.40;;;;;;;-145.63;48.96;38985.13;4953544;29;20078;-66
2023/11/21 07:40:13;;;;;;;8.80;6.85;;;;;;;-145.63;48.15;39006.66;4950794;29;20107;-65
2023/11/21 07:42:39;;;;;;;7.50;6.10;;;;;;;-145.63;48.36;38971.44;4954619;28;20022;-63
2023/11/21 07:45:06;;;;;;;8.93;6.15;;;;;;;-145.63;48.66;38944.06;4949252;29;20091;-63
2023/11/21 07:47:34;;;;;;;8.18;6.22;;;;;;;-145.63;48.48;39022.28;4953073;28;20023;-62
2023/11/21 07:50:03;;;;;;;5.80;5.30;;;;;;;-145.63;47.60;38983.19;4954920;29;20159;-63
2023/11/21 07:52:31;;;;;;;;;;;;;;;-145.63;47.15;39016.44;4954454;28;20095;-64
2023/11/21 07:54:56;;;;;;;8.27;5.80;;;;;;;-145.63;47.87;38979.28;4953516;28;19906;-65
2023/11/21 07:57:22;;;;;;;8.85;5.40;;;;;;;-145.63;47.11;38979.28;4952658;29;20027;-61
2023/11/21 07:59:48;;;;;;;8.90;5.68;;;;;;;-145.63;47.26;38951.88;4952010;29;20031;-62
2023/11/21 08:02:16;;;;;;;7.20;6.50;;;;;;;-145.63;47.52;38961.66;4951909;29;20031;-63
2023/11/21 08:04:41;;;;;;;7.47;5.80;;;;;;;-145.63;47.22;38971.44;4950823;29;20095;-63
2023/11/21 08:07:07;;;;;;;7.72;5.60;;;;;;;-145.63;47.40;39000.78;4943212;29;20036;-62
2023/11/21 08:09:34;;;;;;;8.18;6.03;;;;;;;-145.63;46.47;39016.44;4944390;29;20075;-64
2023/11/21 08:12:02;;;;;;;6.75;5.45;;;;;;;-145.63;46.61;38998.81;4945452;29;20038;-67
2023/11/21 08:14:28;;;;;;;9.93;5.70;;;;;;;-145.63;47.10;38967.53;4947790;29;20019;-66
2023/11/21 08:16:57;;;;;;;7.32;5.40;;;;;;;-145.63;46.22;38969.50;4946736;29;20212;-66
2023/11/21 08:19:24;;;;;;;6.47;5.18;;;;;;;-145.63;46.39;38975.34;4948047;29;20043;-65
2023/11/21 08:21:54;;;;;;;5.88;5.03;;;;;;;-145.63;45.67;38991.00;4935720;29;20055;-66
2023/11/21 08:24:21;;;;;;;6.10;4.72;;;;;;;-145.63;45.57;38994.91;4947667;29;20038;-65
2023/11/21 08:26:46;;;;;;;7.47;5.53;;;;;;;-145.63;46.07;39014.47;4946969;29;20035;-64
2023/11/21 08:29:13;;;;;;;6.07;5.47;;;;;;;-145.63;45.28;38967.53;4948037;29;20047;-66
2023/11/21 08:31:39;;;;;;;6.90;5.20;;;;;;;-145.63;46.23;38998.81;4948104;28;20308;-65
2023/11/21 08:34:04;;;;;;;6.45;5.07;;;;;;;-145.63;46.44;38947.97;4947561;29;20075;-65
2023/11/21 08:36:31;;;;;;;6.32;4.82;;;;;;;-145.63;45.60;38985.13;4947337;29;20043;-68
2023/11/21 08:38:57;;;;;;;6.53;5.15;;;;;;;-145.63;46.27;38973.41;4927599;29;20328;-68
2023/11/21 08:41:23;;;;;;;5.93;5.07;;;;;;;-145.63;45.40;39037.94;4937670;29;20575;-66
2023/11/21 08:43:53;;;;;;;6.22;5.20;;;;;;;-145.63;45.21;38969.50;4947037;29;20039;-66
2023/11/21 08:46:19;;;;;;;5.15;4.60;;;;;;;-145.63;46.04;38992.97;4946891;29;20036;-65
2023/11/21 08:48:45;;;;;;;6.78;4.93;;;;;;;-145.63;45.32;38996.88;4950529;29;20034;-65
2023/11/21 08:51:11;;;;;;;6.22;5.35;;;;;;;-145.63;45.71;38998.81;4947721;29;20193;-64
2023/11/21 08:53:38;;;;;;;6.30;5.10;;;;;;;-145.63;44.87;38973.41;4947448;29;20063;-65
2023/11/21 08:56:04;;;;;;;6.13;4.72;;;;;;;-145.63;45.58;39014.47;4947472;29;20358;-65
2023/11/21 08:58:32;;;;;;;6.32;5.07;;;;;;;-145.63;45.38;38996.88;4947387;29;20059;-66
2023/11/21 09:00:58;;;;;;;5.53;4.78;;;;;;;-145.63;45.44;39016.44;4947496;29;20051;-65
2023/11/21 09:03:24;;;;;;;6.72;4.78;;;;;;;-145.63;44.71;38785.66;4946219;29;20208;-65
2023/11/21 09:05:50;;;;;;;5.40;4.63;;;;;;;-145.63;45.17;39043.81;4946137;29;20023;-65
2023/11/21 09:08:16;;;;;;;7.90;4.70;;;;;;;-145.63;45.20;39043.81;4945277;29;20031;-65
2023/11/21 09:10:43;;;;;;;6.55;5.20;;;;;;;-145.63;46.10;39012.50;4946573;29;20035;-66
2023/11/21 09:13:08;;;;;;;8.45;4.90;;;;;;;-145.63;45.89;38981.22;4947139;29;20038;-67
2023/11/21 09:15:35;;;;;;;6.25;4.93;;;;;;;-145.63;43.70;39000.78;4946338;29;20036;-66
2023/11/21 09:18:01;;;;;;;6.40;4.78;;;;;;;-145.63;45.26;38983.19;4954310;29;20032;-65
2023/11/21 09:20:28;;;;;;;6.82;5.30;;;;;;;-145.63;45.76;38963.63;4955185;28;20083;-66
2023/11/21 09:22:55;;;;;;;6.47;5.05;;;;;;;-145.63;45.01;38985.13;4956095;28;20026;-65
2023/11/21 09:25:21;;;;;;;4.90;4.40;;;;;;;-145.63;45.45;38979.28;4951892;28;20082;-65
2023/11/21 09:27:47;;;;;;;7.25;5.22;;;;;;;-145.63;45.22;39020.34;4955685;29;20031;-66
2023/11/21 09:30:14;;;;;;;7.97;4.60;;;;;;;-145.63;45.22;39024.25;4956072;29;20078;-65
2023/11/21 09:32:40;;;;;;;6.68;4.72;;;;;;;-145.63;44.74;38973.41;4945341;29;20024;-65
2023/11/21 09:35:09;;;;;;;5.03;4.40;;;;;;;-145.63;45.32;38985.13;4946936;29;20030;-66
2023/11/21 09:37:37;;;;;;;6.13;4.78;;;;;;;-145.63;46.19;39012.50;4942957;29;20032;-66
2023/11/21 09:40:05;;;;;;;6.38;4.60;;;;;;;-145.63;45.15;39006.66;4948070;29;20046;-64
2023/11/21 09:42:38;;;;;;;5.93;4.20;;;;;;;-145.63;44.44;39041.84;4955768;29;20031;-64
2023/11/21 09:45:21;;;;;;;5.80;4.65;;;;;;;-145.63;44.79;39024.25;4949529;28;20345;-64
2023/11/21 09:47:46;;;;;;;6.47;4.80;;;;;;;-145.63;45.76;39028.16;4954918;29;20242;-64
2023/11/21 09:50:17;;;;;;;5.78;5.13;;;;;;;-145.63;45.24;38992.97;4950790;29;20048;-67
2023/11/21 09:53:04;;;;;;;5.93;5.30;;;;;;;-145.63;44.31;39086.81;4945239;29;20158;-69
2023/11/21 09:55:38;;;;;;;6.20;5.28;;;;;;;-145.63;46.48;38773.94;4945393;29;20039;-68
2023/11/21 09:58:07;;;;;;;8.05;4.70;;;;;;;-145.63;46.09;39004.69;4946472;29;20038;-68
2023/11/21 10:00:34;;;;;;;5.93;5.10;;;;;;;-145.63;46.90;38797.41;4946093;29;20035;-68
2023/11/21 10:03:00;;;;;;;5.82;4.82;;;;;;;-145.63;45.73;39010.56;4954970;29;20098;-65
2023/11/21 10:05:26;;;;;;;6.20;4.82;;;;;;;-145.63;46.50;38944.06;4954824;29;20035;-68
2023/11/21 10:07:53;;;;;;;6.45;5.50;;;;;;;-145.63;46.05;38996.88;4948350;29;20031;-68
2023/11/21 10:10:21;;;;;;;6.55;4.72;;;;;;;-145.63;45.81;38899.09;4947903;29;20035;-69
2023/11/21 10:12:55;;;;;;;6.28;5.10;;;;;;;-145.63;45.93;39051.63;4953353;28;20031;-70
2023/11/21 10:15:27;;;;;;;5.78;4.88;;;;;;;-145.63;45.83;38991.00;4954986;28;20035;-69
2023/11/21 10:17:54;;;;;;;7.28;4.82;;;;;;;-145.63;46.27;39002.72;4951036;29;20044;-69
2023/11/21 10:20:20;;;;;;;6.57;5.15;;;;;;;-145.63;46.01;39039.88;4952532;29;20046;-69
2023/11/21 10:22:46;;;;;;;8.07;5.10;;;;;;;-145.63;45.73;38977.31;4955869;29;20288;-69
2023/11/21 10:25:17;;;;;;;7.78;4.80;;;;;;;-145.63;46.76;38998.81;4952315;29;20027;-70
2023/11/21 10:27:47;;;;;;;6.07;4.90;;;;;;;-145.63;45.70;39039.88;4943701;29;20023;-66
2023/11/21 10:30:15;;;;;;;8.23;5.40;;;;;;;-145.63;45.48;39008.59;4945287;29;20048;-69
2023/11/21 10:32:42;;;;;;;5.93;5.22;;;;;;;-145.63;46.06;39043.81;4945390;29;20334;-70
2023/11/21 10:35:12;;;;;;;7.20;5.10;;;;;;;-145.63;45.66;39030.13;4944974;29;20283;-69
2023/11/21 10:37:40;;;;;;;6.18;4.70;;;;;;;-145.63;45.75;39030.13;4944879;29;20216;-69
2023/11/21 10:40:07;;;;;;;6.40;5.57;;;;;;;-145.63;45.71;39022.28;4945317;29;20028;-67
2023/11/21 10:42:33;;;;;;;7.15;5.25;;;;;;;-145.63;45.69;39032.06;4943059;29;20274;-67
2023/11/21 10:45:00;;;;;;;7.32;5.15;;;;;;;-145.63;45.69;39024.25;4944531;29;20074;-68
2023/11/21 10:47:26;;;;;;;7.10;5.10;;;;;;;-145.63;45.71;38998.81;4945455;29;20034;-67
2023/11/21 10:49:55;;;;;;;6.75;4.88;;;;;;;-145.63;46.48;38996.88;4953347;29;20040;-67
2023/11/21 10:52:20;;;;;;;6.68;5.35;;;;;;;-145.63;46.56;39000.78;4944298;29;20249;-67
2023/11/21 10:54:47;;;;;;;6.38;4.80;;;;;;;-145.63;46.07;39006.66;4945494;29;20034;-69
2023/11/21 10:57:17;;;;;;;6.10;4.68;;;;;;;-145.63;46.72;39028.16;4931855;29;20028;-68
2023/11/21 10:59:48;;;;;;;5.40;4.88;;;;;;;-145.63;46.71;39022.28;4950866;29;20031;-67
2023/11/21 11:02:21;;;;;;;;;;;;;;;-145.63;46.33;39010.56;4948658;29;20023;-69
2023/11/21 11:04:48;;;;;;;5.68;4.40;;;;;;;-145.63;46.50;39059.44;4953356;28;20178;-66
2023/11/21 11:07:18;;;;;;;6.80;5.10;;;;;;;-145.63;46.99;39039.88;4953859;29;20030;-67
2023/11/21 11:09:45;;;;;;;5.57;4.78;;;;;;;-145.63;45.81;39000.78;4954704;29;20091;-65
2023/11/21 11:12:12;;;;;;;8.20;4.95;;;;;;;-145.63;46.23;39047.72;4953378;28;20031;-66
2023/11/21 11:14:41;;;;;;;6.35;4.90;;;;;;;-145.63;46.10;39045.75;4947462;29;20028;-66